Time;durP1;ratioP1;P1;durP2;ratioP2;P2;SDS_P1;SDS_P2;PMS_P1;PMS_P2;Temp;Humidity;BMP_temperature;BMP_pressure;BME280_temperature;BME280_humidity;BME280_pressure;Samples;Min_cycle;Max_cycle;Signal;HPM_P1;HPM_P2
2022/09/13 00:00:34;;;;;;;6.78;4.00;;;19.40;99.90;;;;;;4978625;28;20026;-83
2022/09/13 00:03:00;;;;;;;5.50;3.97;;;19.40;99.90;;;;;;4978517;28;20022;-82
2022/09/13 00:05:26;;;;;;;7.65;3.50;;;19.40;99.90;;;;;;4978311;28;20121;-82
2022/09/13 00:07:52;;;;;;;5.18;3.67;;;19.30;99.90;;;;;;4997450;28;20148;-82
2022/09/13 00:10:18;;;;;;;4.68;4.03;;;19.20;99.90;;;;;;4979396;28;20422;-82
2022/09/13 00:12:43;;;;;;;5.07;3.75;;;19.30;99.90;;;;;;4980472;28;20038;-82
2022/09/13 00:15:09;;;;;;;7.68;3.78;;;19.20;99.90;;;;;;4981135;28;20027;-83
2022/09/13 00:17:38;;;;;;;8.38;3.97;;;19.30;99.90;;;;;;4981943;28;20026;-83
2022/09/13 00:20:04;;;;;;;9.05;3.97;;;19.30;99.90;;;;;;4981540;28;20467;-84
2022/09/13 00:22:30;;;;;;;6.53;3.75;;;19.40;99.90;;;;;;4981212;28;20380;-83
2022/09/13 00:24:56;;;;;;;7.35;4.18;;;19.40;99.90;;;;;;4982268;28;20037;-84
2022/09/13 00:27:22;;;;;;;8.55;4.05;;;19.30;99.90;;;;;;4999487;28;20555;-84
2022/09/13 00:29:47;;;;;;;4.40;3.58;;;19.30;99.90;;;;;;4978297;28;20066;-84
2022/09/13 00:32:13;;;;;;;5.30;3.53;;;19.10;99.90;;;;;;4978046;28;20053;-83
2022/09/13 00:34:39;;;;;;;6.90;3.45;;;19.10;99.90;;;;;;4977965;28;20030;-83
2022/09/13 00:37:04;;;;;;;6.78;4.05;;;19.10;99.90;;;;;;4995092;28;20081;-82
2022/09/13 00:39:30;;;;;;;7.65;3.92;;;18.90;99.90;;;;;;4978096;28;20111;-83
2022/09/13 00:41:56;;;;;;;6.25;3.92;;;18.90;99.90;;;;;;4978108;28;20479;-83
2022/09/13 00:44:47;;;;;;;6.72;4.20;;;18.80;99.90;;;;;;4978677;28;20030;-83
2022/09/13 00:47:17;;;;;;;6.50;4.10;;;18.80;99.90;;;;;;4978890;28;20030;-83
2022/09/13 00:49:46;;;;;;;5.15;3.97;;;19.00;99.90;;;;;;4979720;28;20035;-82
2022/09/13 00:52:17;;;;;;;8.45;4.30;;;19.00;99.90;;;;;;4979828;28;20415;-83
2022/09/13 00:54:48;;;;;;;9.68;4.13;;;19.00;99.90;;;;;;4996966;28;20022;-83
2022/09/13 00:57:17;;;;;;;6.97;4.55;;;18.90;99.90;;;;;;4979926;28;20125;-83
2022/09/13 00:59:51;;;;;;;6.70;4.07;;;18.80;99.90;;;;;;4979770;28;20019;-83
2022/09/13 01:02:17;;;;;;;7.28;4.57;;;18.80;99.90;;;;;;4980035;28;20033;-83
2022/09/13 01:04:43;;;;;;;6.18;4.18;;;19.00;99.90;;;;;;4997079;28;20489;-83
2022/09/13 01:07:14;;;;;;;5.90;3.78;;;19.00;99.90;;;;;;4981581;28;20403;-83
2022/09/13 01:09:43;;;;;;;6.88;4.10;;;19.00;99.90;;;;;;4982771;28;20129;-83
2022/09/13 01:12:35;;;;;;;4.95;4.20;;;19.00;99.90;;;;;;4981970;28;20506;-83
2022/09/13 01:15:03;;;;;;;10.77;4.25;;;18.90;99.90;;;;;;4982285;28;20038;-83
2022/09/13 01:17:31;;;;;;;6.10;4.20;;;19.10;99.90;;;;;;4981828;28;20050;-83
2022/09/13 01:19:58;;;;;;;6.57;4.47;;;19.20;99.90;;;;;;4982102;28;20101;-83
2022/09/13 01:23:03;;;;;;;7.15;4.05;;;19.20;99.90;;;;;;4984232;28;20533;-82
2022/09/13 01:25:48;;;;;;;5.35;4.60;;;19.20;99.90;;;;;;4984581;28;20030;-83
2022/09/13 01:28:25;;;;;;;6.75;4.63;;;19.30;99.90;;;;;;4983834;28;20048;-83
2022/09/13 01:31:16;;;;;;;6.90;4.40;;;19.40;99.90;;;;;;4985921;28;20026;-84
2022/09/13 01:34:24;;;;;;;8.93;4.75;;;19.30;99.90;;;;;;4984956;28;20093;-84
2022/09/13 01:37:04;;;;;;;6.32;4.50;;;19.30;99.90;;;;;;4981593;28;20038;-83
2022/09/13 01:40:03;;;;;;;6.75;4.28;;;19.20;99.90;;;;;;4983039;28;20034;-83
2022/09/13 01:43:06;;;;;;;7.32;4.35;;;19.30;99.90;;;;;;5000092;28;20165;-84
2022/09/13 01:45:35;;;;;;;8.20;4.50;;;19.10;99.90;;;;;;4982452;28;20034;-84
2022/09/13 01:48:33;;;;;;;6.65;4.10;;;19.10;99.90;;;;;;4981796;28;20030;-83
2022/09/13 01:51:22;;;;;;;10.15;4.60;;;19.20;99.90;;;;;;4982313;28;20058;-84
2022/09/13 01:54:10;;;;;;;4.45;4.03;;;19.10;99.90;;;;;;4980775;28;20037;-84
2022/09/13 01:56:47;;;;;;;6.80;4.03;;;19.30;99.90;;;;;;4980864;28;20038;-84
2022/09/13 01:59:23;;;;;;;7.10;4.10;;;19.30;99.90;;;;;;4982150;28;20023;-83
2022/09/13 02:01:59;;;;;;;4.88;4.38;;;19.20;99.90;;;;;;4982347;28;20030;-83
2022/09/13 02:04:33;;;;;;;6.80;3.95;;;19.10;99.90;;;;;;4982496;28;20030;-83
2022/09/13 02:07:13;;;;;;;6.40;4.07;;;19.20;99.90;;;;;;4981443;28;20037;-82
2022/09/13 02:09:43;;;;;;;7.13;3.70;;;19.40;99.90;;;;;;4981748;28;20046;-82
2022/09/13 02:12:21;;;;;;;6.43;3.78;;;19.60;99.90;;;;;;4981344;28;20431;-82
2022/09/13 02:14:56;;;;;;;5.68;3.72;;;19.50;99.90;;;;;;4981257;28;20034;-82
2022/09/13 02:17:26;;;;;;;7.68;4.10;;;19.50;99.90;;;;;;4980814;28;20180;-82
2022/09/13 02:19:54;;;;;;;8.07;3.95;;;19.50;99.90;;;;;;4996913;28;20018;-82
2022/09/13 02:22:26;;;;;;;4.93;3.53;;;19.40;99.90;;;;;;4981212;28;20521;-83
2022/09/13 02:24:56;;;;;;;3.90;3.47;;;19.60;99.90;;;;;;4983345;28;20065;-84
2022/09/13 02:27:26;;;;;;;6.75;3.67;;;19.50;99.90;;;;;;4983116;28;20134;-82
2022/09/13 02:29:57;;;;;;;7.65;3.90;;;19.40;99.90;;;;;;4982589;28;20023;-82
2022/09/13 02:33:02;;;;;;;6.80;3.70;;;19.30;99.90;;;;;;4981680;28;20030;-82
2022/09/13 02:36:08;;;;;;;6.28;3.80;;;19.30;99.90;;;;;;4981826;28;20070;-83
2022/09/13 02:38:44;;;;;;;7.90;3.72;;;19.20;99.90;;;;;;4957806;29;20060;-83
2022/09/13 02:41:27;;;;;;;8.63;4.00;;;19.20;99.90;;;;;;4977899;28;20054;-84
2022/09/13 02:44:00;;;;;;;6.47;3.63;;;19.10;99.90;;;;;;4982855;28;20128;-82
2022/09/13 02:46:32;;;;;;;5.10;3.97;;;19.10;99.90;;;;;;5000846;28;20491;-83
2022/09/13 02:49:10;;;;;;;6.03;3.97;;;19.00;99.90;;;;;;4981888;28;20026;-83
2022/09/13 02:51:53;;;;;;;7.10;4.30;;;19.00;99.90;;;;;;4981500;28;20042;-84
2022/09/13 02:54:41;;;;;;;4.82;4.28;;;18.90;99.90;;;;;;4980963;28;20034;-83
2022/09/13 02:57:31;;;;;;;6.93;4.07;;;18.80;99.90;;;;;;4982058;28;20069;-83
2022/09/13 02:59:58;;;;;;;5.35;3.80;;;18.70;99.90;;;;;;4967869;28;20033;-83
2022/09/13 03:02:31;;;;;;;5.53;3.88;;;18.60;99.90;;;;;;4999344;28;20026;-84
2022/09/13 03:04:59;;;;;;;4.45;3.67;;;18.70;99.90;;;;;;4979080;28;20027;-83
2022/09/13 03:07:25;;;;;;;8.13;3.65;;;18.80;99.90;;;;;;4982204;28;20105;-83
2022/09/13 03:09:59;;;;;;;5.30;3.80;;;19.10;99.90;;;;;;4999908;28;20034;-83
2022/09/13 03:13:02;;;;;;;8.38;4.00;;;19.10;99.90;;;;;;4981364;28;20027;-83
2022/09/13 03:15:47;;;;;;;;;;;19.00;99.90;;;;;;4981015;28;20077;-83
2022/09/13 03:18:22;;;;;;;5.13;3.55;;;18.90;99.90;;;;;;4983508;28;19918;-83
2022/09/13 03:21:08;;;;;;;7.05;3.70;;;18.80;99.90;;;;;;4981553;28;20464;-83
2022/09/13 03:23:46;;;;;;;5.90;3.47;;;18.70;99.90;;;;;;4981272;28;20034;-83
2022/09/13 03:26:35;;;;;;;5.40;3.47;;;18.70;99.90;;;;;;5000405;28;20031;-83
2022/09/13 03:29:30;;;;;;;4.82;3.47;;;18.70;99.90;;;;;;4980592;28;20054;-83
2022/09/13 03:32:24;;;;;;;8.25;4.00;;;18.60;99.90;;;;;;4998665;28;20121;-83
2022/09/13 03:35:03;;;;;;;6.10;3.22;;;18.70;99.90;;;;;;4981627;28;20029;-82
2022/09/13 03:37:55;;;;;;;5.65;3.30;;;18.70;99.90;;;;;;4999878;28;20036;-83
2022/09/13 03:40:27;;;;;;;8.15;3.88;;;18.70;99.90;;;;;;4981693;28;20123;-82
2022/09/13 03:43:02;;;;;;;6.47;3.88;;;18.80;99.90;;;;;;4982430;28;20069;-83
2022/09/13 03:45:32;;;;;;;7.28;3.78;;;18.80;99.90;;;;;;4979685;28;20037;-83
2022/09/13 03:47:59;;;;;;;7.13;3.90;;;18.80;99.90;;;;;;4978219;28;20034;-83
2022/09/13 03:50:25;;;;;;;6.30;4.15;;;18.80;99.90;;;;;;4980222;28;20023;-82
2022/09/13 03:52:58;;;;;;;8.82;4.00;;;18.90;99.90;;;;;;4979072;28;20126;-83
2022/09/13 03:55:25;;;;;;;4.95;3.65;;;19.00;99.90;;;;;;4978893;28;20030;-82
2022/09/13 03:57:50;;;;;;;5.70;3.90;;;18.90;99.90;;;;;;4999076;28;20056;-82
2022/09/13 04:00:17;;;;;;;4.25;3.85;;;18.80;99.90;;;;;;4980553;28;20073;-83
2022/09/13 04:02:43;;;;;;;5.63;3.78;;;18.80;99.90;;;;;;4996141;28;20113;-83
2022/09/13 04:05:09;;;;;;;10.18;4.03;;;18.80;99.90;;;;;;4980870;28;20026;-83
2022/09/13 04:07:35;;;;;;;4.35;3.88;;;18.70;99.90;;;;;;4978254;28;20502;-83
2022/09/13 04:10:00;;;;;;;5.05;4.13;;;18.80;99.90;;;;;;4976839;28;20043;-83
2022/09/13 04:12:30;;;;;;;11.10;4.97;;;18.60;99.90;;;;;;4975482;28;20060;-83
2022/09/13 04:14:56;;;;;;;7.88;4.97;;;18.60;99.90;;;;;;4976176;28;20115;-82
2022/09/13 04:17:22;;;;;;;9.40;4.93;;;18.60;99.90;;;;;;4978863;28;20058;-84
2022/09/13 04:19:48;;;;;;;5.15;4.65;;;18.60;99.90;;;;;;4975280;28;20022;-81
2022/09/13 04:22:14;;;;;;;7.65;5.35;;;18.40;99.90;;;;;;4994618;28;20049;-81
2022/09/13 04:24:42;;;;;;;5.60;5.10;;;18.40;99.90;;;;;;4977739;28;20057;-83
2022/09/13 04:27:07;;;;;;;10.38;4.75;;;18.40;99.90;;;;;;4976074;28;20031;-83
2022/09/13 04:29:33;;;;;;;9.27;5.13;;;18.40;99.90;;;;;;4976007;28;20034;-83
2022/09/13 04:31:59;;;;;;;9.07;4.80;;;18.70;99.90;;;;;;4978062;28;20034;-83
2022/09/13 04:34:25;;;;;;;5.40;4.88;;;18.80;99.90;;;;;;4996676;28;20027;-83
2022/09/13 04:36:52;;;;;;;10.45;5.32;;;18.80;99.90;;;;;;4979408;28;20038;-83
2022/09/13 04:39:19;;;;;;;6.97;4.72;;;18.90;99.90;;;;;;4977426;28;20066;-83
2022/09/13 04:41:46;;;;;;;8.32;5.10;;;18.90;99.90;;;;;;4979031;28;20037;-83
2022/09/13 04:44:13;;;;;;;5.28;4.70;;;19.00;99.90;;;;;;4981580;28;20026;-83
2022/09/13 04:46:40;;;;;;;7.63;4.82;;;18.90;99.90;;;;;;4984500;28;20026;-84
2022/09/13 04:49:09;;;;;;;8.32;4.82;;;18.90;99.90;;;;;;4982521;28;20399;-83
2022/09/13 04:51:35;;;;;;;8.95;6.50;;;18.80;99.90;;;;;;4983083;28;20042;-83
2022/09/13 04:54:00;;;;;;;8.38;5.13;;;18.70;99.90;;;;;;5001023;28;20138;-83
2022/09/13 04:56:26;;;;;;;6.38;5.15;;;18.80;99.90;;;;;;4982112;28;20038;-83
2022/09/13 04:58:54;;;;;;;6.82;4.68;;;18.70;99.90;;;;;;4983865;28;20048;-82
2022/09/13 05:01:20;;;;;;;7.95;4.85;;;18.70;99.90;;;;;;4998654;28;20022;-82
2022/09/13 05:03:47;;;;;;;7.28;4.88;;;18.60;99.90;;;;;;4981681;28;20030;-82
2022/09/13 05:06:18;;;;;;;8.60;5.22;;;18.50;99.90;;;;;;4983575;28;20038;-83
2022/09/13 05:08:48;;;;;;;7.10;5.90;;;18.40;99.90;;;;;;4983480;28;20035;-83
2022/09/13 05:11:14;;;;;;;8.20;5.78;;;18.20;99.90;;;;;;4977112;28;20110;-83
2022/09/13 05:13:40;;;;;;;10.38;5.63;;;18.20;99.90;;;;;;4977230;28;20177;-83
2022/09/13 05:16:06;;;;;;;7.35;5.72;;;18.40;99.90;;;;;;4977532;28;20526;-83
2022/09/13 05:18:34;;;;;;;6.65;5.93;;;18.40;99.90;;;;;;4979630;28;20034;-82
2022/09/13 05:21:01;;;;;;;11.50;6.03;;;18.40;99.90;;;;;;4976538;28;20046;-82
2022/09/13 05:23:29;;;;;;;9.57;5.97;;;18.40;99.90;;;;;;4976878;28;20114;-82
2022/09/13 05:26:01;;;;;;;14.70;7.05;;;18.50;99.90;;;;;;4978153;28;20061;-82
2022/09/13 05:28:28;;;;;;;16.33;6.20;;;18.50;99.90;;;;;;4976617;28;20035;-82
2022/09/13 05:31:17;;;;;;;6.80;5.75;;;18.50;99.90;;;;;;4979918;28;20038;-83
2022/09/13 05:33:44;;;;;;;10.02;5.90;;;18.60;99.90;;;;;;4977227;28;20507;-83
2022/09/13 05:36:10;;;;;;;12.65;5.85;;;18.50;99.90;;;;;;4978161;28;20058;-83
2022/09/13 05:38:36;;;;;;;9.18;5.70;;;18.50;99.90;;;;;;4977075;28;20792;-83
2022/09/13 05:41:03;;;;;;;9.13;5.93;;;18.60;99.90;;;;;;4970206;28;20023;-83
2022/09/13 05:43:32;;;;;;;15.25;5.88;;;18.60;99.90;;;;;;4973581;28;20037;-83
2022/09/13 05:46:02;;;;;;;9.02;6.22;;;18.60;99.90;;;;;;4972975;28;20054;-83
2022/09/13 05:48:29;;;;;;;14.07;5.70;;;18.70;99.90;;;;;;4976658;28;20402;-83
2022/09/13 05:50:55;;;;;;;8.00;5.75;;;18.80;99.90;;;;;;4969351;28;20534;-83
2022/09/13 05:53:20;;;;;;;9.05;5.63;;;18.80;99.90;;;;;;4974418;28;20031;-83
2022/09/13 05:55:46;;;;;;;9.95;6.30;;;18.70;99.90;;;;;;4969861;28;20046;-83
2022/09/13 05:58:12;;;;;;;6.93;5.70;;;18.90;99.90;;;;;;4978276;28;20037;-84
2022/09/13 06:00:37;;;;;;;10.82;6.10;;;19.00;99.90;;;;;;4973480;28;20141;-84
2022/09/13 06:03:03;;;;;;;13.98;6.15;;;18.90;99.90;;;;;;4976557;28;20635;-83
2022/09/13 06:05:29;;;;;;;13.25;6.00;;;19.00;99.90;;;;;;4978039;28;20385;-83
2022/09/13 06:07:55;;;;;;;6.78;5.60;;;19.10;99.90;;;;;;4976683;28;20046;-82
2022/09/13 06:10:20;;;;;;;12.77;5.40;;;19.00;99.90;;;;;;4957923;28;20462;-82
2022/09/13 06:12:46;;;;;;;8.40;5.53;;;19.00;99.90;;;;;;4961294;28;20045;-83
2022/09/13 06:15:12;;;;;;;10.05;5.40;;;19.10;99.90;;;;;;4945476;28;20074;-84
2022/09/13 06:17:38;;;;;;;10.68;6.00;;;19.20;99.90;;;;;;4950048;28;20051;-85
2022/09/13 06:20:04;;;;;;;11.98;5.45;;;19.40;99.90;;;;;;4943933;28;20703;-84
2022/09/13 06:22:32;;;;;;;14.00;5.55;;;19.60;99.90;;;;;;4964502;28;20159;-84
2022/09/13 06:24:59;;;;;;;15.70;5.32;;;19.70;99.90;;;;;;4945428;28;20042;-83
2022/09/13 06:27:24;;;;;;;6.60;5.47;;;19.60;99.90;;;;;;4946543;28;20483;-86
2022/09/13 06:29:50;;;;;;;9.05;5.53;;;19.80;99.90;;;;;;4944998;28;20038;-89
2022/09/13 06:32:16;;;;;;;10.40;5.60;;;20.00;99.90;;;;;;4948736;28;20090;-85
2022/09/13 06:34:41;;;;;;;14.20;5.90;;;20.00;99.90;;;;;;4945743;28;20027;-84
2022/09/13 06:37:07;;;;;;;12.60;5.40;;;19.90;99.90;;;;;;4949102;28;20503;-85
2022/09/13 06:39:33;;;;;;;11.68;5.57;;;19.90;99.90;;;;;;4940984;28;20137;-84
2022/09/13 06:41:59;;;;;;;6.55;5.05;;;19.90;99.90;;;;;;4931992;28;21426;-84
2022/09/13 06:44:24;;;;;;;9.45;5.15;;;19.80;99.90;;;;;;4944584;28;20023;-84
2022/09/13 06:46:50;;;;;;;8.63;5.18;;;19.60;99.90;;;;;;4938454;28;20035;-83
2022/09/13 06:49:16;;;;;;;9.30;5.15;;;19.50;99.90;;;;;;4941825;28;20066;-83
2022/09/13 06:51:41;;;;;;;7.68;5.20;;;19.60;99.90;;;;;;4936663;28;20053;-83
2022/09/13 06:54:08;;;;;;;13.85;5.60;;;19.70;99.90;;;;;;4940287;28;20132;-84
2022/09/13 06:56:36;;;;;;;14.55;5.35;;;19.60;99.90;;;;;;4938447;28;20038;-84
2022/09/13 06:59:05;;;;;;;13.82;5.45;;;19.80;99.90;;;;;;4922350;28;20122;-82
2022/09/13 07:01:39;;;;;;;9.68;5.40;;;20.10;99.90;;;;;;4942741;28;20500;-83
2022/09/13 07:04:09;;;;;;;12.18;5.18;;;20.10;99.90;;;;;;4961238;28;20027;-84
2022/09/13 07:06:44;;;;;;;9.48;5.30;;;20.20;99.90;;;;;;4937932;28;20291;-82
2022/09/13 07:09:20;;;;;;;10.90;5.38;;;20.30;99.90;;;;;;4942286;28;20128;-82
2022/09/13 07:11:47;;;;;;;6.20;5.30;;;20.40;99.90;;;;;;4955375;28;20137;-82
2022/09/13 07:14:15;;;;;;;10.05;5.07;;;20.40;99.90;;;;;;4957910;28;20035;-83
2022/09/13 07:16:41;;;;;;;9.10;4.95;;;20.40;99.90;;;;;;4954161;28;20621;-82
2022/09/13 07:19:15;;;;;;;9.68;5.10;;;20.30;99.90;;;;;;4961963;28;20430;-84
2022/09/13 07:21:41;;;;;;;11.38;5.28;;;20.30;99.90;;;;;;4958341;28;20038;-84
2022/09/13 07:24:07;;;;;;;11.10;5.82;;;20.20;99.90;;;;;;4961068;28;20027;-84
2022/09/13 07:26:33;;;;;;;11.05;5.47;;;20.20;99.90;;;;;;4935188;28;20486;-83
2022/09/13 07:29:01;;;;;;;8.95;4.68;;;20.20;99.90;;;;;;4951738;28;20035;-83
2022/09/13 07:31:47;;;;;;;10.25;5.25;;;20.20;99.90;;;;;;4958877;28;20030;-84
2022/09/13 07:34:19;;;;;;;12.13;5.80;;;20.30;99.90;;;;;;4958071;28;20027;-83
2022/09/13 07:36:46;;;;;;;16.90;6.30;;;20.10;99.90;;;;;;4963285;28;20037;-83
2022/09/13 07:39:12;;;;;;;12.77;6.53;;;20.10;99.90;;;;;;4960640;28;20255;-82
2022/09/13 07:41:37;;;;;;;10.43;6.43;;;20.20;99.90;;;;;;4956178;28;20042;-82
2022/09/13 07:44:05;;;;;;;12.65;6.63;;;20.30;99.90;;;;;;4957461;28;20685;-82
2022/09/13 07:46:32;;;;;;;9.10;5.63;;;20.40;99.90;;;;;;4962737;28;20034;-84
2022/09/13 07:48:59;;;;;;;8.30;5.43;;;20.40;99.90;;;;;;4963235;28;20133;-83
2022/09/13 07:51:27;;;;;;;8.02;5.43;;;20.20;99.90;;;;;;4959048;28;20042;-83
2022/09/13 07:53:58;;;;;;;9.98;5.60;;;20.30;99.90;;;;;;4956351;28;20584;-84
2022/09/13 07:56:33;;;;;;;9.75;5.80;;;20.30;99.90;;;;;;4959615;28;20489;-84
2022/09/13 07:59:01;;;;;;;14.48;5.82;;;20.40;99.90;;;;;;4963167;28;20038;-83
2022/09/13 08:01:40;;;;;;;10.77;5.43;;;20.70;99.90;;;;;;4958518;28;20034;-83
2022/09/13 08:04:08;;;;;;;8.85;5.40;;;21.20;99.90;;;;;;4963488;28;20034;-83
2022/09/13 08:06:36;;;;;;;6.40;4.80;;;21.50;99.90;;;;;;4961678;28;20034;-84
2022/09/13 08:09:03;;;;;;;11.45;5.47;;;21.80;99.90;;;;;;4970999;28;20563;-84
2022/09/13 08:11:31;;;;;;;6.88;4.70;;;22.10;99.90;;;;;;4960836;28;20125;-90
2022/09/13 08:13:58;;;;;;;15.25;5.60;;;22.00;99.90;;;;;;4966287;28;20080;-84
2022/09/13 08:16:25;;;;;;;17.90;5.60;;;22.00;99.90;;;;;;4966194;28;20069;-85
2022/09/13 08:18:53;;;;;;;13.50;5.28;;;22.00;99.90;;;;;;4999720;28;20100;-86
2022/09/13 08:21:20;;;;;;;14.25;5.75;;;22.10;99.90;;;;;;4981156;28;20031;-85
2022/09/13 08:23:46;;;;;;;6.18;5.15;;;22.10;99.90;;;;;;4981042;28;20404;-84
2022/09/13 08:26:12;;;;;;;14.95;5.75;;;22.20;99.90;;;;;;4982240;28;20037;-87
2022/09/13 08:28:40;;;;;;;12.57;5.30;;;22.40;99.90;;;;;;4987369;28;20057;-84
2022/09/13 08:31:12;;;;;;;12.38;5.60;;;22.40;99.90;;;;;;4972241;28;20030;-88
2022/09/13 08:33:38;;;;;;;7.03;5.15;;;22.50;99.90;;;;;;4971317;28;20041;-82
2022/09/13 08:36:04;;;;;;;10.88;5.57;;;22.60;99.90;;;;;;4970339;28;20030;-83
2022/09/13 08:38:31;;;;;;;8.02;5.18;;;22.80;99.90;;;;;;4953057;28;20038;-83
2022/09/13 08:41:20;;;;;;;7.80;5.40;;;22.90;99.90;;;;;;4968715;28;20404;-83
2022/09/13 08:43:52;;;;;;;10.13;5.15;;;23.30;99.90;;;;;;4968575;28;20026;-84
2022/09/13 08:46:40;;;;;;;6.53;4.60;;;23.70;99.90;;;;;;4972071;28;20057;-85
2022/09/13 08:49:26;;;;;;;5.70;4.72;;;24.10;99.90;;;;;;4980398;28;20429;-83
2022/09/13 08:51:59;;;;;;;12.38;5.07;;;24.20;99.90;;;;;;4984619;28;20166;-84
2022/09/13 08:54:25;;;;;;;17.52;5.88;;;23.70;99.90;;;;;;4968289;28;20081;-84
2022/09/13 08:57:05;;;;;;;8.05;5.68;;;23.90;99.90;;;;;;4981464;28;20057;-83
2022/09/13 08:59:40;;;;;;;7.88;4.95;;;24.40;99.90;;;;;;4961631;28;20507;-83
2022/09/13 09:02:08;;;;;;;12.40;5.70;;;24.70;99.90;;;;;;4984023;28;20148;-83
2022/09/13 09:04:37;;;;;;;7.18;5.60;;;25.20;99.90;;;;;;4964005;28;20130;-83
2022/09/13 09:07:20;;;;;;;10.15;5.95;;;25.70;99.90;;;;;;4966869;28;20038;-84
2022/09/13 09:09:50;;;;;;;11.65;5.75;;;26.00;99.90;;;;;;4962505;28;20589;-84
2022/09/13 09:12:42;;;;;;;7.45;5.68;;;26.10;99.90;;;;;;4983205;28;20046;-85
2022/09/13 09:15:24;;;;;;;10.98;6.22;;;26.60;99.90;;;;;;4966195;28;20035;-85
2022/09/13 09:18:01;;;;;;;9.52;6.20;;;26.50;99.90;;;;;;4973584;28;20033;-84
2022/09/13 09:20:35;;;;;;;14.00;6.28;;;27.60;99.90;;;;;;4983627;28;20039;-83
2022/09/13 09:23:16;;;;;;;9.35;5.90;;;28.20;99.90;;;;;;4963533;28;20027;-83
2022/09/13 09:25:42;;;;;;;8.98;5.80;;;27.80;99.90;;;;;;4978723;28;20557;-85
2022/09/13 09:28:16;;;;;;;11.52;5.10;;;27.70;99.90;;;;;;4966382;28;20061;-84
2022/09/13 09:31:12;;;;;;;12.00;5.40;;;27.80;99.90;;;;;;4966589;28;20034;-84
2022/09/13 09:33:56;;;;;;;10.50;5.90;;;27.60;99.90;;;;;;4939300;28;20073;-84
2022/09/13 09:36:35;;;;;;;9.95;5.13;;;27.10;99.90;;;;;;4982729;28;20043;-84
2022/09/13 09:39:04;;;;;;;14.73;5.40;;;27.10;99.90;;;;;;4967575;28;20018;-84
2022/09/13 09:41:32;;;;;;;9.05;5.90;;;27.10;99.90;;;;;;4975337;28;20060;-83
2022/09/13 09:44:23;;;;;;;8.93;5.13;;;27.20;99.90;;;;;;4961040;28;20398;-84
2022/09/13 09:47:06;;;;;;;12.70;5.32;;;26.70;99.90;;;;;;4967701;28;20041;-83
2022/09/13 09:50:09;;;;;;;8.52;4.80;;;26.60;99.90;;;;;;4957713;28;20806;-85
2022/09/13 09:52:55;;;;;;;8.68;5.30;;;26.50;99.90;;;;;;4963917;28;20411;-84
2022/09/13 09:55:30;;;;;;;8.73;4.97;;;26.70;99.90;;;;;;4982377;28;20038;-83
2022/09/13 09:57:56;;;;;;;9.00;4.88;;;26.30;99.90;;;;;;4960803;28;20022;-83
2022/09/13 10:00:28;;;;;;;6.85;5.13;;;26.10;99.90;;;;;;4959848;28;20451;-83
2022/09/13 10:02:58;;;;;;;9.15;4.93;;;26.40;99.90;;;;;;4967218;28;20065;-83
2022/09/13 10:05:26;;;;;;;9.32;4.38;;;26.70;99.90;;;;;;4972069;28;20552;-82
2022/09/13 10:08:04;;;;;;;10.32;5.78;;;26.60;99.90;;;;;;4976401;28;20555;-82
2022/09/13 10:10:41;;;;;;;9.85;5.70;;;27.00;99.90;;;;;;4978131;28;20086;-83
2022/09/13 10:13:17;;;;;;;8.90;4.90;;;27.10;99.90;;;;;;4976713;28;20038;-83
2022/09/13 10:15:56;;;;;;;7.90;4.88;;;27.20;99.90;;;;;;4965746;28;20092;-83
2022/09/13 10:18:22;;;;;;;8.05;5.15;;;27.20;99.90;;;;;;4960790;28;20030;-83
2022/09/13 10:21:00;;;;;;;14.50;5.32;;;27.00;99.90;;;;;;4978879;28;20502;-84
2022/09/13 10:23:26;;;;;;;9.73;5.47;;;26.60;99.90;;;;;;4963653;28;20030;-88
2022/09/13 10:26:10;;;;;;;9.27;4.97;;;26.30;99.90;;;;;;4959761;28;20030;-86
2022/09/13 10:28:51;;;;;;;11.32;5.20;;;26.10;99.90;;;;;;4966657;28;20062;-85
2022/09/13 10:31:19;;;;;;;21.27;5.57;;;26.10;99.90;;;;;;4969223;28;20085;-86
2022/09/13 10:33:58;;;;;;;6.60;4.75;;;26.80;99.90;;;;;;4972257;28;20034;-85
2022/09/13 10:36:31;;;;;;;11.65;4.85;;;27.30;99.90;;;;;;4973365;28;20088;-85
2022/09/13 10:38:58;;;;;;;5.97;4.72;;;27.70;99.90;;;;;;4957948;28;20026;-85
2022/09/13 10:41:27;;;;;;;13.35;5.50;;;27.90;99.90;;;;;;4973998;28;20100;-84
2022/09/13 10:43:58;;;;;;;16.02;5.80;;;27.60;99.90;;;;;;4971775;28;20030;-89
2022/09/13 10:46:24;;;;;;;8.45;5.65;;;27.50;99.90;;;;;;4987858;28;20101;-87
2022/09/13 10:48:56;;;;;;;11.50;6.45;;;27.30;99.90;;;;;;4971169;28;20026;-85
2022/09/13 10:51:34;;;;;;;11.70;6.18;;;27.30;99.90;;;;;;4986388;28;20037;-88
2022/09/13 10:54:09;;;;;;;27.65;7.10;;;27.60;99.90;;;;;;4966244;28;20086;-89
2022/09/13 10:56:35;;;;;;;14.60;6.43;;;27.90;99.90;;;;;;4977629;28;20045;-85
2022/09/13 10:59:23;;;;;;;13.68;6.07;;;27.80;99.90;;;;;;4991947;28;20069;-84
2022/09/13 11:02:22;;;;;;;15.18;5.65;;;27.60;99.90;;;;;;5063640;22;20845;-54
2022/09/13 11:05:24;;;;;;;7.03;5.30;;;27.50;99.90;;;;;;5029283;28;20037;-54
2022/09/13 11:07:55;;;;;;;9.63;5.00;;;27.60;99.90;;;;;;5033673;28;20037;-53
2022/09/13 11:10:31;;;;;;;8.55;5.13;;;27.70;99.90;;;;;;5035579;28;20032;-54
2022/09/13 11:13:22;;;;;;;14.60;4.75;;;27.30;99.90;;;;;;5045991;28;20025;-54
2022/09/13 11:16:21;;;;;;;7.03;4.88;;;27.20;99.90;;;;;;5050663;28;20095;-53
2022/09/13 11:19:07;;;;;;;10.38;5.60;;;27.20;99.90;;;;;;5040961;28;20489;-53
2022/09/13 11:21:52;;;;;;;9.38;5.60;;;26.90;99.90;;;;;;5046984;28;20041;-53
2022/09/13 11:24:46;;;;;;;11.00;5.35;;;26.70;99.90;;;;;;5038578;28;21382;-53
2022/09/13 11:27:27;;;;;;;8.23;5.45;;;26.70;99.90;;;;;;5035270;28;20044;-53
2022/09/13 11:29:58;;;;;;;11.55;5.30;;;26.20;99.90;;;;;;5038807;28;20123;-53
2022/09/13 11:32:48;;;;;;;10.85;5.78;;;26.20;99.90;;;;;;5033976;28;20076;-53
2022/09/13 11:35:26;;;;;;;11.15;5.80;;;26.50;99.90;;;;;;5034882;28;20044;-53
2022/09/13 11:38:04;;;;;;;13.43;6.70;;;26.80;99.90;;;;;;5040427;28;20040;-53
2022/09/13 11:41:07;;;;;;;14.73;7.15;;;27.00;99.90;;;;;;5042066;28;20033;-53
2022/09/13 11:43:50;;;;;;;9.73;5.57;;;26.90;99.90;;;;;;5016764;28;20087;-53
2022/09/13 11:46:57;;;;;;;9.57;5.45;;;26.90;99.90;;;;;;5044987;28;20029;-53
2022/09/13 11:49:29;;;;;;;8.15;4.70;;;26.30;99.90;;;;;;5040078;28;20029;-53
2022/09/13 11:52:07;;;;;;;6.38;3.95;;;26.40;99.90;;;;;;5040995;28;20037;-53
2022/09/13 11:54:52;;;;;;;6.88;4.65;;;26.60;99.90;;;;;;5037366;28;20116;-53
2022/09/13 11:57:43;;;;;;;7.10;4.53;;;26.80;99.90;;;;;;5048989;28;20029;-53
2022/09/13 12:00:36;;;;;;;7.82;5.55;;;26.70;99.90;;;;;;5037317;28;20123;-53
2022/09/13 12:03:04;;;;;;;7.82;5.47;;;27.10;99.90;;;;;;5035754;28;20044;-53
2022/09/13 12:05:39;;;;;;;11.82;4.70;;;26.90;99.90;;;;;;5043821;28;20025;-53
2022/09/13 12:08:17;;;;;;;9.18;5.65;;;26.80;99.90;;;;;;5041683;28;20025;-51
2022/09/13 12:11:10;;;;;;;9.90;5.72;;;26.80;99.90;;;;;;5044481;28;20016;-53
2022/09/13 12:13:52;;;;;;;12.32;6.93;;;26.70;99.90;;;;;;5026891;28;20137;-53
2022/09/13 12:16:23;;;;;;;;;;;26.70;99.90;;;;;;5023348;28;21275;-53
2022/09/13 12:18:53;;;;;;;10.45;6.40;;;26.50;99.90;;;;;;5019990;28;19912;-53
2022/09/13 12:21:34;;;;;;;11.02;6.15;;;26.20;99.90;;;;;;5018502;28;20044;-53
2022/09/13 12:23:59;;;;;;;10.77;6.57;;;25.80;99.90;;;;;;5031306;28;20107;-53
2022/09/13 12:26:53;;;;;;;11.13;7.43;;;25.70;99.90;;;;;;5034294;28;20025;-53
2022/09/13 12:29:45;;;;;;;12.23;7.70;;;25.50;99.90;;;;;;5031027;28;20029;-53
2022/09/13 12:32:12;;;;;;;15.77;9.02;;;25.30;99.90;;;;;;5027237;28;20029;-53
2022/09/13 12:34:53;;;;;;;16.85;8.20;;;25.30;99.90;;;;;;5028635;28;20432;-53
2022/09/13 12:37:57;;;;;;;16.45;8.25;;;25.20;99.90;;;;;;5026731;28;20021;-53
2022/09/13 12:40:49;;;;;;;14.88;8.80;;;25.10;99.90;;;;;;5024220;28;20052;-51
2022/09/13 12:44:07;;;;;;;19.10;9.88;;;25.00;99.90;;;;;;5033972;28;20462;-54
2022/09/13 12:46:36;;;;;;;15.38;10.07;;;24.90;99.90;;;;;;5015358;28;20815;-56
2022/09/13 12:49:07;;;;;;;17.02;10.48;;;24.70;99.90;;;;;;5028671;28;20304;-58
2022/09/13 12:52:16;;;;;;;18.48;10.68;;;24.80;99.90;;;;;;5032495;28;20032;-56
2022/09/13 12:55:09;;;;;;;22.65;11.35;;;24.60;99.90;;;;;;5029283;28;20036;-55
2022/09/13 12:57:47;;;;;;;18.75;10.60;;;24.50;99.90;;;;;;5032054;28;20491;-56
2022/09/13 13:00:42;;;;;;;20.83;11.60;;;24.30;99.90;;;;;;5035083;28;20115;-56
2022/09/13 13:03:10;;;;;;;15.30;11.00;;;24.30;99.90;;;;;;5028120;28;20045;-55
2022/09/13 13:05:55;;;;;;;16.65;11.98;;;24.10;99.90;;;;;;5033898;28;20067;-55
2022/09/13 13:08:20;;;;;;;17.15;11.70;;;24.20;99.90;;;;;;5028716;28;20535;-55
2022/09/13 13:11:08;;;;;;;28.85;12.38;;;24.20;99.90;;;;;;5033113;28;20025;-55
2022/09/13 13:13:39;;;;;;;24.45;11.93;;;24.20;99.90;;;;;;5031748;28;20139;-55
2022/09/13 13:16:23;;;;;;;22.85;12.45;;;24.10;99.90;;;;;;5037558;28;20036;-56
2022/09/13 13:18:51;;;;;;;24.00;12.98;;;24.10;99.90;;;;;;5034333;28;20041;-56